sensor_id;sensor_type;location;lat;lon;timestamp;P1;durP1;ratioP1;P2;durP2;ratioP2
67595;SDS011;54410;48.694;8.934;2023-09-19T00:00:20;2.08;;;1.90;;
67595;SDS011;54410;48.694;8.934;2023-09-19T00:02:53;2.13;;;2.03;;
67595;SDS011;54410;48.694;8.934;2023-09-19T00:05:20;2.00;;;1.90;;
67595;SDS011;54410;48.694;8.934;2023-09-19T00:07:59;2.30;;;2.10;;
67595;SDS011;54410;48.694;8.934;2023-09-19T00:10:25;2.30;;;2.10;;
67595;SDS011;54410;48.694;8.934;2023-09-19T00:12:54;2.25;;;2.05;;
67595;SDS011;54410;48.694;8.934;2023-09-19T00:15:30;3.47;;;2.00;;
67595;SDS011;54410;48.694;8.934;2023-09-19T00:17:56;1.70;;;1.60;;
67595;SDS011;54410;48.694;8.934;2023-09-19T00:20:22;2.20;;;2.00;;
67595;SDS011;54410;48.694;8.934;2023-09-19T00:22:49;2.40;;;2.03;;
67595;SDS011;54410;48.694;8.934;2023-09-19T00:25:19;2.15;;;1.95;;
67595;SDS011;54410;48.694;8.934;2023-09-19T00:27:45;2.03;;;1.90;;
67595;SDS011;54410;48.694;8.934;2023-09-19T00:30:16;2.03;;;1.90;;
67595;SDS011;54410;48.694;8.934;2023-09-19T00:32:46;2.95;;;1.95;;
67595;SDS011;54410;48.694;8.934;2023-09-19T00:35:13;3.97;;;2.08;;
67595;SDS011;54410;48.694;8.934;2023-09-19T00:37:40;2.20;;;2.03;;
67595;SDS011;54410;48.694;8.934;2023-09-19T00:40:07;2.65;;;1.92;;
67595;SDS011;54410;48.694;8.934;2023-09-19T00:42:40;2.65;;;2.00;;
67595;SDS011;54410;48.694;8.934;2023-09-19T00:45:10;2.75;;;1.80;;
67595;SDS011;54410;48.694;8.934;2023-09-19T00:47:41;2.38;;;2.10;;
67595;SDS011;54410;48.694;8.934;2023-09-19T00:50:08;2.33;;;1.80;;
67595;SDS011;54410;48.694;8.934;2023-09-19T00:52:35;2.00;;;1.90;;
67595;SDS011;54410;48.694;8.934;2023-09-19T00:55:07;2.47;;;2.00;;
67595;SDS011;54410;48.694;8.934;2023-09-19T00:57:33;2.28;;;1.90;;
67595;SDS011;54410;48.694;8.934;2023-09-19T01:00:00;2.33;;;2.22;;
67595;SDS011;54410;48.694;8.934;2023-09-19T01:02:30;2.28;;;2.08;;
67595;SDS011;54410;48.694;8.934;2023-09-19T01:04:57;2.30;;;1.80;;
67595;SDS011;54410;48.694;8.934;2023-09-19T01:07:23;2.58;;;2.38;;
67595;SDS011;54410;48.694;8.934;2023-09-19T01:09:49;3.97;;;1.88;;
67595;SDS011;54410;48.694;8.934;2023-09-19T01:12:18;2.83;;;1.70;;
67595;SDS011;54410;48.694;8.934;2023-09-19T01:14:55;3.03;;;1.77;;
67595;SDS011;54410;48.694;8.934;2023-09-19T01:17:29;3.75;;;1.98;;
67595;SDS011;54410;48.694;8.934;2023-09-19T01:20:03;1.90;;;1.80;;
67595;SDS011;54410;48.694;8.934;2023-09-19T01:22:38;3.78;;;2.10;;
67595;SDS011;54410;48.694;8.934;2023-09-19T01:25:20;2.90;;;2.40;;
67595;SDS011;54410;48.694;8.934;2023-09-19T01:30:44;2.00;;;1.80;;
67595;SDS011;54410;48.694;8.934;2023-09-19T01:33:11;2.75;;;1.90;;
67595;SDS011;54410;48.694;8.934;2023-09-19T01:35:37;2.00;;;1.90;;
67595;SDS011;54410;48.694;8.934;2023-09-19T01:38:04;1.88;;;1.77;;
67595;SDS011;54410;48.694;8.934;2023-09-19T01:40:31;2.10;;;1.92;;
67595;SDS011;54410;48.694;8.934;2023-09-19T01:43:05;2.25;;;2.15;;
67595;SDS011;54410;48.694;8.934;2023-09-19T01:45:43;1.85;;;1.75;;
67595;SDS011;54410;48.694;8.934;2023-09-19T01:50:42;2.05;;;1.67;;
67595;SDS011;54410;48.694;8.934;2023-09-19T01:53:14;1.80;;;1.70;;
67595;SDS011;54410;48.694;8.934;2023-09-19T01:55:42;1.77;;;1.67;;
67595;SDS011;54410;48.694;8.934;2023-09-19T01:58:27;1.85;;;1.75;;
67595;SDS011;54410;48.694;8.934;2023-09-19T02:00:55;2.00;;;1.90;;
67595;SDS011;54410;48.694;8.934;2023-09-19T02:03:23;2.80;;;1.75;;
67595;SDS011;54410;48.694;8.934;2023-09-19T02:05:49;1.70;;;1.60;;
67595;SDS011;54410;48.694;8.934;2023-09-19T02:08:20;3.00;;;1.45;;
67595;SDS011;54410;48.694;8.934;2023-09-19T02:10:48;1.70;;;1.60;;
67595;SDS011;54410;48.694;8.934;2023-09-19T02:13:24;1.90;;;1.80;;
67595;SDS011;54410;48.694;8.934;2023-09-19T02:15:51;1.67;;;1.58;;
67595;SDS011;54410;48.694;8.934;2023-09-19T02:18:17;1.83;;;1.70;;
67595;SDS011;54410;48.694;8.934;2023-09-19T02:20:44;1.70;;;1.60;;
67595;SDS011;54410;48.694;8.934;2023-09-19T02:23:11;1.63;;;1.58;;
67595;SDS011;54410;48.694;8.934;2023-09-19T02:25:37;1.95;;;1.80;;
67595;SDS011;54410;48.694;8.934;2023-09-19T02:28:04;2.13;;;1.92;;
67595;SDS011;54410;48.694;8.934;2023-09-19T02:30:30;2.15;;;2.05;;
67595;SDS011;54410;48.694;8.934;2023-09-19T02:32:56;2.03;;;1.90;;
67595;SDS011;54410;48.694;8.934;2023-09-19T02:35:22;2.75;;;1.80;;
67595;SDS011;54410;48.694;8.934;2023-09-19T02:37:51;1.85;;;1.75;;
67595;SDS011;54410;48.694;8.934;2023-09-19T02:40:17;2.33;;;2.13;;
67595;SDS011;54410;48.694;8.934;2023-09-19T02:42:52;1.80;;;1.70;;
67595;SDS011;54410;48.694;8.934;2023-09-19T02:45:19;2.03;;;1.92;;
67595;SDS011;54410;48.694;8.934;2023-09-19T02:47:46;2.38;;;2.17;;
67595;SDS011;54410;48.694;8.934;2023-09-19T02:50:13;2.25;;;2.00;;
67595;SDS011;54410;48.694;8.934;2023-09-19T02:52:44;3.53;;;2.08;;
67595;SDS011;54410;48.694;8.934;2023-09-19T02:55:18;1.90;;;1.80;;
67595;SDS011;54410;48.694;8.934;2023-09-19T02:57:51;2.10;;;1.98;;
67595;SDS011;54410;48.694;8.934;2023-09-19T03:00:18;2.08;;;1.90;;
67595;SDS011;54410;48.694;8.934;2023-09-19T03:02:46;4.25;;;2.25;;
67595;SDS011;54410;48.694;8.934;2023-09-19T03:05:12;2.08;;;1.90;;
67595;SDS011;54410;48.694;8.934;2023-09-19T03:07:38;2.22;;;2.03;;
67595;SDS011;54410;48.694;8.934;2023-09-19T03:10:05;2.50;;;1.98;;
67595;SDS011;54410;48.694;8.934;2023-09-19T03:12:32;2.50;;;2.03;;
67595;SDS011;54410;48.694;8.934;2023-09-19T03:14:59;2.35;;;1.98;;
67595;SDS011;54410;48.694;8.934;2023-09-19T03:17:25;1.92;;;1.60;;
67595;SDS011;54410;48.694;8.934;2023-09-19T03:19:52;3.40;;;2.20;;
67595;SDS011;54410;48.694;8.934;2023-09-19T03:22:18;2.38;;;1.90;;
67595;SDS011;54410;48.694;8.934;2023-09-19T03:24:44;2.35;;;1.77;;
67595;SDS011;54410;48.694;8.934;2023-09-19T03:27:12;2.83;;;1.80;;
67595;SDS011;54410;48.694;8.934;2023-09-19T03:29:42;2.45;;;2.25;;
67595;SDS011;54410;48.694;8.934;2023-09-19T03:32:08;1.98;;;1.77;;
67595;SDS011;54410;48.694;8.934;2023-09-19T03:34:37;3.38;;;2.00;;
67595;SDS011;54410;48.694;8.934;2023-09-19T03:37:08;2.17;;;1.95;;
67595;SDS011;54410;48.694;8.934;2023-09-19T03:39:34;2.45;;;2.10;;
67595;SDS011;54410;48.694;8.934;2023-09-19T03:42:00;3.15;;;2.30;;
67595;SDS011;54410;48.694;8.934;2023-09-19T03:44:27;2.72;;;2.22;;
67595;SDS011;54410;48.694;8.934;2023-09-19T03:46:53;2.20;;;1.90;;
67595;SDS011;54410;48.694;8.934;2023-09-19T03:49:21;3.65;;;2.17;;
67595;SDS011;54410;48.694;8.934;2023-09-19T03:51:47;2.17;;;2.00;;
67595;SDS011;54410;48.694;8.934;2023-09-19T03:54:12;2.33;;;1.85;;
67595;SDS011;54410;48.694;8.934;2023-09-19T03:56:38;3.13;;;2.20;;
67595;SDS011;54410;48.694;8.934;2023-09-19T03:59:04;3.42;;;2.40;;
67595;SDS011;54410;48.694;8.934;2023-09-19T04:01:31;6.05;;;2.55;;
67595;SDS011;54410;48.694;8.934;2023-09-19T04:03:57;2.88;;;2.08;;
67595;SDS011;54410;48.694;8.934;2023-09-19T04:06:24;2.45;;;2.25;;
67595;SDS011;54410;48.694;8.934;2023-09-19T04:08:52;2.45;;;2.15;;
67595;SDS011;54410;48.694;8.934;2023-09-19T04:11:19;2.28;;;2.10;;
67595;SDS011;54410;48.694;8.934;2023-09-19T04:13:45;3.22;;;2.30;;
67595;SDS011;54410;48.694;8.934;2023-09-19T04:16:11;2.35;;;1.90;;
67595;SDS011;54410;48.694;8.934;2023-09-19T04:18:38;2.47;;;2.15;;
67595;SDS011;54410;48.694;8.934;2023-09-19T04:21:04;2.80;;;2.60;;
67595;SDS011;54410;48.694;8.934;2023-09-19T04:23:31;2.72;;;2.53;;
67595;SDS011;54410;48.694;8.934;2023-09-19T04:25:57;2.65;;;2.45;;
67595;SDS011;54410;48.694;8.934;2023-09-19T04:28:23;2.53;;;2.33;;
67595;SDS011;54410;48.694;8.934;2023-09-19T04:30:50;3.45;;;2.67;;
67595;SDS011;54410;48.694;8.934;2023-09-19T04:33:16;3.53;;;2.53;;
67595;SDS011;54410;48.694;8.934;2023-09-19T04:35:42;3.60;;;2.42;;
67595;SDS011;54410;48.694;8.934;2023-09-19T04:38:08;2.58;;;2.28;;
67595;SDS011;54410;48.694;8.934;2023-09-19T04:40:34;3.03;;;2.42;;
67595;SDS011;54410;48.694;8.934;2023-09-19T04:43:00;3.08;;;2.42;;
67595;SDS011;54410;48.694;8.934;2023-09-19T04:45:26;3.75;;;2.08;;
67595;SDS011;54410;48.694;8.934;2023-09-19T04:47:52;2.95;;;2.30;;
67595;SDS011;54410;48.694;8.934;2023-09-19T04:50:19;3.17;;;2.50;;
67595;SDS011;54410;48.694;8.934;2023-09-19T04:52:48;2.80;;;2.55;;
67595;SDS011;54410;48.694;8.934;2023-09-19T04:55:16;2.28;;;2.08;;
67595;SDS011;54410;48.694;8.934;2023-09-19T04:57:45;3.90;;;2.30;;
67595;SDS011;54410;48.694;8.934;2023-09-19T05:00:15;4.50;;;2.63;;
67595;SDS011;54410;48.694;8.934;2023-09-19T05:02:44;2.50;;;2.30;;
67595;SDS011;54410;48.694;8.934;2023-09-19T05:05:10;2.70;;;2.30;;
67595;SDS011;54410;48.694;8.934;2023-09-19T05:07:37;2.60;;;2.40;;
67595;SDS011;54410;48.694;8.934;2023-09-19T05:10:03;2.63;;;2.35;;
67595;SDS011;54410;48.694;8.934;2023-09-19T05:12:31;3.25;;;2.65;;
67595;SDS011;54410;48.694;8.934;2023-09-19T05:14:57;3.28;;;2.78;;
67595;SDS011;54410;48.694;8.934;2023-09-19T05:17:23;3.10;;;2.38;;
67595;SDS011;54410;48.694;8.934;2023-09-19T05:19:49;2.67;;;2.47;;
67595;SDS011;54410;48.694;8.934;2023-09-19T05:22:15;2.95;;;2.42;;
67595;SDS011;54410;48.694;8.934;2023-09-19T05:24:40;2.85;;;2.35;;
67595;SDS011;54410;48.694;8.934;2023-09-19T05:27:06;3.88;;;2.92;;
67595;SDS011;54410;48.694;8.934;2023-09-19T05:29:33;3.75;;;3.45;;
67595;SDS011;54410;48.694;8.934;2023-09-19T05:31:59;2.88;;;2.67;;
67595;SDS011;54410;48.694;8.934;2023-09-19T05:34:25;4.00;;;3.25;;
67595;SDS011;54410;48.694;8.934;2023-09-19T05:36:55;2.90;;;2.60;;
67595;SDS011;54410;48.694;8.934;2023-09-19T05:39:21;4.30;;;2.78;;
67595;SDS011;54410;48.694;8.934;2023-09-19T05:41:47;4.15;;;2.90;;
67595;SDS011;54410;48.694;8.934;2023-09-19T05:44:13;3.83;;;2.95;;
67595;SDS011;54410;48.694;8.934;2023-09-19T05:46:39;2.92;;;2.67;;
67595;SDS011;54410;48.694;8.934;2023-09-19T05:49:05;2.65;;;2.45;;
67595;SDS011;54410;48.694;8.934;2023-09-19T05:51:31;3.42;;;2.78;;
67595;SDS011;54410;48.694;8.934;2023-09-19T05:53:57;3.20;;;2.75;;
67595;SDS011;54410;48.694;8.934;2023-09-19T05:56:23;4.13;;;2.95;;
67595;SDS011;54410;48.694;8.934;2023-09-19T05:58:49;2.72;;;2.50;;
67595;SDS011;54410;48.694;8.934;2023-09-19T06:01:17;2.20;;;2.10;;
67595;SDS011;54410;48.694;8.934;2023-09-19T06:03:43;2.10;;;2.00;;
67595;SDS011;54410;48.694;8.934;2023-09-19T06:06:09;2.70;;;2.00;;
67595;SDS011;54410;48.694;8.934;2023-09-19T06:08:35;2.50;;;2.30;;
67595;SDS011;54410;48.694;8.934;2023-09-19T06:11:01;2.63;;;2.00;;
67595;SDS011;54410;48.694;8.934;2023-09-19T06:13:28;1.88;;;1.77;;
67595;SDS011;54410;48.694;8.934;2023-09-19T06:15:54;2.20;;;2.00;;
67595;SDS011;54410;48.694;8.934;2023-09-19T06:18:21;2.22;;;2.10;;
67595;SDS011;54410;48.694;8.934;2023-09-19T06:20:51;2.30;;;2.20;;
67595;SDS011;54410;48.694;8.934;2023-09-19T06:23:17;2.33;;;1.88;;
67595;SDS011;54410;48.694;8.934;2023-09-19T06:25:45;2.47;;;2.15;;
67595;SDS011;54410;48.694;8.934;2023-09-19T06:28:10;2.55;;;2.10;;
67595;SDS011;54410;48.694;8.934;2023-09-19T06:30:42;2.00;;;1.90;;
67595;SDS011;54410;48.694;8.934;2023-09-19T06:33:09;2.13;;;2.03;;
67595;SDS011;54410;48.694;8.934;2023-09-19T06:35:36;3.05;;;2.25;;
67595;SDS011;54410;48.694;8.934;2023-09-19T06:38:03;3.80;;;2.00;;
67595;SDS011;54410;48.694;8.934;2023-09-19T06:40:29;1.83;;;1.70;;
67595;SDS011;54410;48.694;8.934;2023-09-19T06:42:56;7.32;;;1.95;;
67595;SDS011;54410;48.694;8.934;2023-09-19T06:45:22;1.90;;;1.80;;
67595;SDS011;54410;48.694;8.934;2023-09-19T06:47:51;1.48;;;1.48;;
67595;SDS011;54410;48.694;8.934;2023-09-19T06:50:22;1.75;;;1.65;;
67595;SDS011;54410;48.694;8.934;2023-09-19T06:52:49;1.90;;;1.80;;
67595;SDS011;54410;48.694;8.934;2023-09-19T06:55:18;2.10;;;1.60;;
67595;SDS011;54410;48.694;8.934;2023-09-19T06:57:45;1.50;;;1.40;;
67595;SDS011;54410;48.694;8.934;2023-09-19T07:00:11;1.63;;;1.52;;
67595;SDS011;54410;48.694;8.934;2023-09-19T07:02:44;2.95;;;1.60;;
67595;SDS011;54410;48.694;8.934;2023-09-19T07:05:10;2.63;;;1.60;;
67595;SDS011;54410;48.694;8.934;2023-09-19T07:07:36;1.67;;;1.20;;
67595;SDS011;54410;48.694;8.934;2023-09-19T07:10:03;1.83;;;1.50;;
67595;SDS011;54410;48.694;8.934;2023-09-19T07:12:31;2.75;;;1.33;;
67595;SDS011;54410;48.694;8.934;2023-09-19T07:14:58;1.45;;;1.40;;
67595;SDS011;54410;48.694;8.934;2023-09-19T07:17:24;1.85;;;1.52;;
67595;SDS011;54410;48.694;8.934;2023-09-19T07:19:49;2.10;;;1.23;;
67595;SDS011;54410;48.694;8.934;2023-09-19T07:22:15;1.30;;;1.20;;
67595;SDS011;54410;48.694;8.934;2023-09-19T07:24:41;1.30;;;1.20;;
67595;SDS011;54410;48.694;8.934;2023-09-19T07:27:07;1.00;;;1.00;;
67595;SDS011;54410;48.694;8.934;2023-09-19T07:29:33;1.25;;;1.13;;
67595;SDS011;54410;48.694;8.934;2023-09-19T07:31:59;1.05;;;1.05;;
67595;SDS011;54410;48.694;8.934;2023-09-19T07:34:25;1.20;;;1.10;;
67595;SDS011;54410;48.694;8.934;2023-09-19T07:36:50;1.77;;;1.10;;
67595;SDS011;54410;48.694;8.934;2023-09-19T07:39:16;1.05;;;1.05;;
67595;SDS011;54410;48.694;8.934;2023-09-19T07:41:42;1.27;;;1.10;;
67595;SDS011;54410;48.694;8.934;2023-09-19T07:44:08;1.10;;;1.00;;
67595;SDS011;54410;48.694;8.934;2023-09-19T07:46:35;2.15;;;1.23;;
67595;SDS011;54410;48.694;8.934;2023-09-19T07:49:01;1.25;;;1.15;;
67595;SDS011;54410;48.694;8.934;2023-09-19T07:51:27;1.35;;;1.25;;
67595;SDS011;54410;48.694;8.934;2023-09-19T07:53:52;1.67;;;1.35;;
67595;SDS011;54410;48.694;8.934;2023-09-19T07:56:20;1.23;;;1.08;;
67595;SDS011;54410;48.694;8.934;2023-09-19T07:58:45;2.10;;;1.00;;
67595;SDS011;54410;48.694;8.934;2023-09-19T08:01:11;2.35;;;1.30;;
67595;SDS011;54410;48.694;8.934;2023-09-19T08:03:39;1.13;;;1.02;;
67595;SDS011;54410;48.694;8.934;2023-09-19T08:06:05;3.35;;;1.25;;
67595;SDS011;54410;48.694;8.934;2023-09-19T08:08:32;1.30;;;1.20;;
67595;SDS011;54410;48.694;8.934;2023-09-19T08:10:59;1.50;;;1.27;;
67595;SDS011;54410;48.694;8.934;2023-09-19T08:13:26;1.00;;;1.00;;
67595;SDS011;54410;48.694;8.934;2023-09-19T08:15:52;1.00;;;1.00;;
67595;SDS011;54410;48.694;8.934;2023-09-19T08:18:20;1.42;;;1.33;;
67595;SDS011;54410;48.694;8.934;2023-09-19T08:20:49;1.30;;;1.20;;
67595;SDS011;54410;48.694;8.934;2023-09-19T08:23:15;1.65;;;1.25;;
67595;SDS011;54410;48.694;8.934;2023-09-19T08:25:43;1.25;;;1.17;;
67595;SDS011;54410;48.694;8.934;2023-09-19T08:28:08;1.45;;;1.30;;
67595;SDS011;54410;48.694;8.934;2023-09-19T08:30:37;3.10;;;1.40;;
67595;SDS011;54410;48.694;8.934;2023-09-19T08:33:05;1.30;;;1.20;;
67595;SDS011;54410;48.694;8.934;2023-09-19T08:35:31;1.65;;;1.40;;
67595;SDS011;54410;48.694;8.934;2023-09-19T08:37:57;1.63;;;1.20;;
67595;SDS011;54410;48.694;8.934;2023-09-19T08:40:25;1.58;;;1.20;;
67595;SDS011;54410;48.694;8.934;2023-09-19T08:42:54;1.30;;;1.20;;
67595;SDS011;54410;48.694;8.934;2023-09-19T08:45:21;1.83;;;1.17;;
67595;SDS011;54410;48.694;8.934;2023-09-19T08:48:38;1.58;;;1.10;;
67595;SDS011;54410;48.694;8.934;2023-09-19T08:50:43;1.38;;;1.25;;
67595;SDS011;54410;48.694;8.934;2023-09-19T08:53:23;2.17;;;1.15;;
67595;SDS011;54410;48.694;8.934;2023-09-19T08:55:53;1.30;;;1.20;;
67595;SDS011;54410;48.694;8.934;2023-09-19T08:58:21;1.90;;;1.30;;
67595;SDS011;54410;48.694;8.934;2023-09-19T09:00:52;1.50;;;1.40;;
67595;SDS011;54410;48.694;8.934;2023-09-19T09:03:18;1.30;;;1.20;;
67595;SDS011;54410;48.694;8.934;2023-09-19T09:05:46;3.03;;;1.65;;
67595;SDS011;54410;48.694;8.934;2023-09-19T09:08:13;1.70;;;1.60;;
67595;SDS011;54410;48.694;8.934;2023-09-19T09:10:40;1.45;;;1.35;;
67595;SDS011;54410;48.694;8.934;2023-09-19T09:13:08;3.63;;;1.70;;
67595;SDS011;54410;48.694;8.934;2023-09-19T09:15:37;1.67;;;1.58;;
67595;SDS011;54410;48.694;8.934;2023-09-19T09:18:04;1.55;;;1.45;;
67595;SDS011;54410;48.694;8.934;2023-09-19T09:20:30;2.53;;;1.40;;
67595;SDS011;54410;48.694;8.934;2023-09-19T09:22:56;3.63;;;1.75;;
67595;SDS011;54410;48.694;8.934;2023-09-19T09:28:34;1.58;;;1.48;;
67595;SDS011;54410;48.694;8.934;2023-09-19T09:31:02;1.65;;;1.38;;
67595;SDS011;54410;48.694;8.934;2023-09-19T09:33:32;1.60;;;1.50;;
67595;SDS011;54410;48.694;8.934;2023-09-19T09:35:59;1.60;;;1.50;;
67595;SDS011;54410;48.694;8.934;2023-09-19T09:38:28;1.50;;;1.40;;
67595;SDS011;54410;48.694;8.934;2023-09-19T09:41:10;2.05;;;1.60;;
67595;SDS011;54410;48.694;8.934;2023-09-19T09:43:40;1.50;;;1.40;;
67595;SDS011;54410;48.694;8.934;2023-09-19T09:51:38;2.00;;;1.50;;
67595;SDS011;54410;48.694;8.934;2023-09-19T09:54:13;2.08;;;1.88;;
67595;SDS011;54410;48.694;8.934;2023-09-19T10:02:15;2.80;;;1.60;;
67595;SDS011;54410;48.694;8.934;2023-09-19T10:05:12;1.65;;;1.55;;
67595;SDS011;54410;48.694;8.934;2023-09-19T10:07:48;1.85;;;1.65;;
67595;SDS011;54410;48.694;8.934;2023-09-19T10:10:36;1.83;;;1.60;;
67595;SDS011;54410;48.694;8.934;2023-09-19T10:13:06;1.80;;;1.40;;
67595;SDS011;54410;48.694;8.934;2023-09-19T10:15:33;1.67;;;1.58;;
67595;SDS011;54410;48.694;8.934;2023-09-19T10:18:01;1.83;;;1.60;;
67595;SDS011;54410;48.694;8.934;2023-09-19T10:20:29;1.95;;;1.60;;
67595;SDS011;54410;48.694;8.934;2023-09-19T10:23:00;1.70;;;1.60;;
67595;SDS011;54410;48.694;8.934;2023-09-19T10:25:27;2.25;;;1.60;;
67595;SDS011;54410;48.694;8.934;2023-09-19T10:27:54;3.13;;;1.65;;
67595;SDS011;54410;48.694;8.934;2023-09-19T10:30:22;2.15;;;1.90;;
67595;SDS011;54410;48.694;8.934;2023-09-19T10:32:51;1.98;;;1.80;;
67595;SDS011;54410;48.694;8.934;2023-09-19T10:35:22;1.70;;;1.60;;
67595;SDS011;54410;48.694;8.934;2023-09-19T10:37:49;1.45;;;1.40;;
67595;SDS011;54410;48.694;8.934;2023-09-19T10:40:16;3.50;;;2.17;;
67595;SDS011;54410;48.694;8.934;2023-09-19T10:42:45;3.10;;;1.83;;
67595;SDS011;54410;48.694;8.934;2023-09-19T10:45:11;2.03;;;1.83;;
67595;SDS011;54410;48.694;8.934;2023-09-19T10:47:38;2.40;;;1.60;;
67595;SDS011;54410;48.694;8.934;2023-09-19T10:50:05;1.65;;;1.55;;
67595;SDS011;54410;48.694;8.934;2023-09-19T10:52:38;2.00;;;1.67;;
67595;SDS011;54410;48.694;8.934;2023-09-19T10:55:06;2.03;;;1.67;;
67595;SDS011;54410;48.694;8.934;2023-09-19T10:57:36;5.63;;;2.70;;
67595;SDS011;54410;48.694;8.934;2023-09-19T11:00:03;1.63;;;1.45;;
67595;SDS011;54410;48.694;8.934;2023-09-19T11:06:10;1.60;;;1.50;;
67595;SDS011;54410;48.694;8.934;2023-09-19T11:11:40;2.58;;;1.85;;
67595;SDS011;54410;48.694;8.934;2023-09-19T11:30:42;4.40;;;1.55;;
67595;SDS011;54410;48.694;8.934;2023-09-19T11:33:24;2.25;;;1.52;;
67595;SDS011;54410;48.694;8.934;2023-09-19T11:36:03;1.80;;;1.70;;
67595;SDS011;54410;48.694;8.934;2023-09-19T11:46:17;2.08;;;1.73;;
67595;SDS011;54410;48.694;8.934;2023-09-19T11:48:49;2.50;;;1.65;;
67595;SDS011;54410;48.694;8.934;2023-09-19T11:51:16;1.55;;;1.40;;
67595;SDS011;54410;48.694;8.934;2023-09-19T11:53:56;2.38;;;1.60;;
67595;SDS011;54410;48.694;8.934;2023-09-19T11:56:24;1.70;;;1.60;;
67595;SDS011;54410;48.694;8.934;2023-09-19T11:58:53;1.75;;;1.63;;
67595;SDS011;54410;48.694;8.934;2023-09-19T12:01:23;1.48;;;1.38;;
67595;SDS011;54410;48.694;8.934;2023-09-19T12:03:54;1.60;;;1.50;;
67595;SDS011;54410;48.694;8.934;2023-09-19T12:06:22;2.38;;;1.60;;
67595;SDS011;54410;48.694;8.934;2023-09-19T12:08:48;2.45;;;1.50;;
67595;SDS011;54410;48.694;8.934;2023-09-19T12:11:16;1.95;;;1.50;;
67595;SDS011;54410;48.694;8.934;2023-09-19T12:13:42;1.45;;;1.30;;
67595;SDS011;54410;48.694;8.934;2023-09-19T12:16:12;2.58;;;1.80;;
67595;SDS011;54410;48.694;8.934;2023-09-19T12:18:41;1.85;;;1.58;;
67595;SDS011;54410;48.694;8.934;2023-09-19T12:21:27;1.67;;;1.58;;
67595;SDS011;54410;48.694;8.934;2023-09-19T12:26:38;1.58;;;1.48;;
67595;SDS011;54410;48.694;8.934;2023-09-19T12:29:09;2.03;;;1.65;;
67595;SDS011;54410;48.694;8.934;2023-09-19T12:31:46;2.15;;;1.63;;
67595;SDS011;54410;48.694;8.934;2023-09-19T12:34:15;1.83;;;1.60;;
67595;SDS011;54410;48.694;8.934;2023-09-19T12:36:44;1.60;;;1.42;;
67595;SDS011;54410;48.694;8.934;2023-09-19T12:39:10;1.75;;;1.63;;
67595;SDS011;54410;48.694;8.934;2023-09-19T12:41:39;1.83;;;1.70;;
67595;SDS011;54410;48.694;8.934;2023-09-19T12:44:05;1.70;;;1.60;;
67595;SDS011;54410;48.694;8.934;2023-09-19T12:46:34;5.13;;;1.80;;
67595;SDS011;54410;48.694;8.934;2023-09-19T12:49:16;1.63;;;1.50;;
67595;SDS011;54410;48.694;8.934;2023-09-19T12:51:48;3.92;;;1.73;;
67595;SDS011;54410;48.694;8.934;2023-09-19T12:54:14;1.58;;;1.48;;
67595;SDS011;54410;48.694;8.934;2023-09-19T12:56:41;1.92;;;1.75;;
67595;SDS011;54410;48.694;8.934;2023-09-19T12:59:14;2.58;;;1.70;;
67595;SDS011;54410;48.694;8.934;2023-09-19T13:01:42;2.88;;;1.75;;
67595;SDS011;54410;48.694;8.934;2023-09-19T13:04:12;1.70;;;1.60;;
67595;SDS011;54410;48.694;8.934;2023-09-19T13:06:45;3.10;;;1.60;;
67595;SDS011;54410;48.694;8.934;2023-09-19T13:09:13;1.58;;;1.48;;
67595;SDS011;54410;48.694;8.934;2023-09-19T13:11:39;3.30;;;1.63;;
67595;SDS011;54410;48.694;8.934;2023-09-19T13:14:23;1.70;;;1.60;;
67595;SDS011;54410;48.694;8.934;2023-09-19T13:17:00;1.67;;;1.58;;
67595;SDS011;54410;48.694;8.934;2023-09-19T13:22:02;2.35;;;1.90;;
67595;SDS011;54410;48.694;8.934;2023-09-19T13:24:29;1.80;;;1.70;;
67595;SDS011;54410;48.694;8.934;2023-09-19T13:26:56;2.90;;;1.50;;
67595;SDS011;54410;48.694;8.934;2023-09-19T13:29:22;3.15;;;1.75;;
67595;SDS011;54410;48.694;8.934;2023-09-19T13:31:51;1.80;;;1.70;;
67595;SDS011;54410;48.694;8.934;2023-09-19T13:34:19;2.25;;;2.00;;
67595;SDS011;54410;48.694;8.934;2023-09-19T13:36:46;3.22;;;1.90;;
67595;SDS011;54410;48.694;8.934;2023-09-19T13:39:13;2.00;;;1.80;;
67595;SDS011;54410;48.694;8.934;2023-09-19T13:41:40;1.75;;;1.63;;
67595;SDS011;54410;48.694;8.934;2023-09-19T13:44:07;3.05;;;1.60;;
67595;SDS011;54410;48.694;8.934;2023-09-19T13:46:35;1.80;;;1.70;;
67595;SDS011;54410;48.694;8.934;2023-09-19T13:49:02;1.88;;;1.73;;
67595;SDS011;54410;48.694;8.934;2023-09-19T13:51:28;1.90;;;1.50;;
67595;SDS011;54410;48.694;8.934;2023-09-19T13:53:55;2.13;;;1.73;;
67595;SDS011;54410;48.694;8.934;2023-09-19T13:56:20;1.80;;;1.70;;
67595;SDS011;54410;48.694;8.934;2023-09-19T13:58:46;3.13;;;1.90;;
67595;SDS011;54410;48.694;8.934;2023-09-19T14:01:12;1.92;;;1.60;;
67595;SDS011;54410;48.694;8.934;2023-09-19T14:03:39;2.17;;;1.45;;
67595;SDS011;54410;48.694;8.934;2023-09-19T14:06:05;1.70;;;1.60;;
67595;SDS011;54410;48.694;8.934;2023-09-19T14:08:31;2.22;;;1.73;;
67595;SDS011;54410;48.694;8.934;2023-09-19T14:10:59;1.63;;;1.52;;
67595;SDS011;54410;48.694;8.934;2023-09-19T14:13:26;1.50;;;1.40;;
67595;SDS011;54410;48.694;8.934;2023-09-19T14:15:51;1.70;;;1.60;;
67595;SDS011;54410;48.694;8.934;2023-09-19T14:18:17;1.58;;;1.48;;
67595;SDS011;54410;48.694;8.934;2023-09-19T14:20:43;2.13;;;1.60;;
67595;SDS011;54410;48.694;8.934;2023-09-19T14:23:09;2.03;;;1.83;;
67595;SDS011;54410;48.694;8.934;2023-09-19T14:25:35;1.45;;;1.30;;
67595;SDS011;54410;48.694;8.934;2023-09-19T14:28:03;2.35;;;1.70;;
67595;SDS011;54410;48.694;8.934;2023-09-19T14:30:29;1.55;;;1.45;;
67595;SDS011;54410;48.694;8.934;2023-09-19T14:32:55;2.75;;;1.60;;
67595;SDS011;54410;48.694;8.934;2023-09-19T14:35:22;1.80;;;1.70;;
67595;SDS011;54410;48.694;8.934;2023-09-19T14:37:48;2.00;;;1.80;;
67595;SDS011;54410;48.694;8.934;2023-09-19T14:40:14;1.63;;;1.52;;
67595;SDS011;54410;48.694;8.934;2023-09-19T14:42:42;1.60;;;1.50;;
67595;SDS011;54410;48.694;8.934;2023-09-19T14:45:09;2.58;;;1.45;;
67595;SDS011;54410;48.694;8.934;2023-09-19T14:47:35;1.52;;;1.42;;
67595;SDS011;54410;48.694;8.934;2023-09-19T14:50:01;1.80;;;1.70;;
67595;SDS011;54410;48.694;8.934;2023-09-19T14:52:31;1.48;;;1.38;;
67595;SDS011;54410;48.694;8.934;2023-09-19T14:54:57;1.50;;;1.40;;
67595;SDS011;54410;48.694;8.934;2023-09-19T14:57:23;2.03;;;1.70;;
67595;SDS011;54410;48.694;8.934;2023-09-19T14:59:51;2.13;;;1.60;;
67595;SDS011;54410;48.694;8.934;2023-09-19T15:02:17;1.83;;;1.73;;
67595;SDS011;54410;48.694;8.934;2023-09-19T15:04:42;2.80;;;1.60;;
67595;SDS011;54410;48.694;8.934;2023-09-19T15:07:12;2.55;;;2.28;;
67595;SDS011;54410;48.694;8.934;2023-09-19T15:09:40;2.13;;;1.95;;
67595;SDS011;54410;48.694;8.934;2023-09-19T15:12:06;5.03;;;1.70;;
67595;SDS011;54410;48.694;8.934;2023-09-19T15:14:32;1.63;;;1.52;;
67595;SDS011;54410;48.694;8.934;2023-09-19T15:16:57;3.10;;;1.70;;
67595;SDS011;54410;48.694;8.934;2023-09-19T15:19:23;1.58;;;1.48;;
67595;SDS011;54410;48.694;8.934;2023-09-19T15:21:49;3.00;;;1.80;;
67595;SDS011;54410;48.694;8.934;2023-09-19T15:24:14;2.97;;;1.30;;
67595;SDS011;54410;48.694;8.934;2023-09-19T15:26:43;1.88;;;1.35;;
67595;SDS011;54410;48.694;8.934;2023-09-19T15:29:10;1.85;;;1.70;;
67595;SDS011;54410;48.694;8.934;2023-09-19T15:31:35;1.80;;;1.70;;
67595;SDS011;54410;48.694;8.934;2023-09-19T15:34:02;1.60;;;1.50;;
67595;SDS011;54410;48.694;8.934;2023-09-19T15:36:28;1.50;;;1.40;;
67595;SDS011;54410;48.694;8.934;2023-09-19T15:41:28;2.05;;;1.63;;
67595;SDS011;54410;48.694;8.934;2023-09-19T15:43:58;2.60;;;1.50;;
67595;SDS011;54410;48.694;8.934;2023-09-19T15:46:35;2.13;;;1.77;;
67595;SDS011;54410;48.694;8.934;2023-09-19T15:49:05;2.10;;;1.42;;
67595;SDS011;54410;48.694;8.934;2023-09-19T15:51:32;1.50;;;1.45;;